sensor_id;sensor_type;location;lat;lon;timestamp;pressure;altitude;pressure_sealevel;temperature
22269;BMP280;11303;50.772;19.670;2024-03-06T00:01:46;99088.84;;;0.50
22269;BMP280;11303;50.772;19.670;2024-03-06T00:03:48;99088.84;;;0.45
22269;BMP280;11303;50.772;19.670;2024-03-06T00:05:49;99078.88;;;0.38
22269;BMP280;11303;50.772;19.670;2024-03-06T00:07:51;99078.63;;;0.40
22269;BMP280;11303;50.772;19.670;2024-03-06T00:09:53;99086.03;;;0.51
22269;BMP280;11303;50.772;19.670;2024-03-06T00:11:57;99071.72;;;0.61
22269;BMP280;11303;50.772;19.670;2024-03-06T00:13:59;99082.69;;;0.66
22269;BMP280;11303;50.772;19.670;2024-03-06T00:16:01;99072.19;;;0.68
22269;BMP280;11303;50.772;19.670;2024-03-06T00:18:03;99075.03;;;0.61
22269;BMP280;11303;50.772;19.670;2024-03-06T00:20:07;99088.06;;;0.49
22269;BMP280;11303;50.772;19.670;2024-03-06T00:22:10;99088.34;;;0.43
22269;BMP280;11303;50.772;19.670;2024-03-06T00:24:15;99102.66;;;0.39
22269;BMP280;11303;50.772;19.670;2024-03-06T00:26:17;99097.28;;;0.40
22269;BMP280;11303;50.772;19.670;2024-03-06T00:28:19;99090.91;;;0.38
22269;BMP280;11303;50.772;19.670;2024-03-06T00:30:20;99090.91;;;0.38
22269;BMP280;11303;50.772;19.670;2024-03-06T00:32:22;99091.16;;;0.41
22269;BMP280;11303;50.772;19.670;2024-03-06T00:34:24;99089.38;;;0.47
22269;BMP280;11303;50.772;19.670;2024-03-06T00:36:26;99089.09;;;0.43
22269;BMP280;11303;50.772;19.670;2024-03-06T00:38:28;99098.56;;;0.43
22269;BMP280;11303;50.772;19.670;2024-03-06T00:40:29;99102.41;;;0.45
22269;BMP280;11303;50.772;19.670;2024-03-06T00:42:32;99101.38;;;0.46
22269;BMP280;11303;50.772;19.670;2024-03-06T00:44:34;99095.00;;;0.44
22269;BMP280;11303;50.772;19.670;2024-03-06T00:46:36;99091.91;;;0.42
22269;BMP280;11303;50.772;19.670;2024-03-06T00:48:38;99090.66;;;0.44
22269;BMP280;11303;50.772;19.670;2024-03-06T00:50:42;99088.06;;;0.49
22269;BMP280;11303;50.772;19.670;2024-03-06T00:52:44;99093.97;;;0.55
22269;BMP280;11303;50.772;19.670;2024-03-06T00:54:46;99082.19;;;0.59
22269;BMP280;11303;50.772;19.670;2024-03-06T00:56:47;99089.63;;;0.61
22269;BMP280;11303;50.772;19.670;2024-03-06T00:58:49;99085.75;;;0.63
22269;BMP280;11303;50.772;19.670;2024-03-06T01:00:50;99089.09;;;0.69
22269;BMP280;11303;50.772;19.670;2024-03-06T01:02:52;99086.78;;;0.67
22269;BMP280;11303;50.772;19.670;2024-03-06T01:04:53;99085.25;;;0.61
22269;BMP280;11303;50.772;19.670;2024-03-06T01:06:55;99076.31;;;0.48
22269;BMP280;11303;50.772;19.670;2024-03-06T01:08:58;99089.88;;;0.44
22269;BMP280;11303;50.772;19.670;2024-03-06T01:11:00;99088.09;;;0.44
22269;BMP280;11303;50.772;19.670;2024-03-06T01:13:01;99093.69;;;0.46
22269;BMP280;11303;50.772;19.670;2024-03-06T01:15:03;99102.66;;;0.49
22269;BMP280;11303;50.772;19.670;2024-03-06T01:17:05;99099.84;;;0.45
22269;BMP280;11303;50.772;19.670;2024-03-06T01:19:07;99093.72;;;0.36
22269;BMP280;11303;50.772;19.670;2024-03-06T01:21:09;99100.88;;;0.34
22269;BMP280;11303;50.772;19.670;2024-03-06T01:23:11;99102.41;;;0.40
22269;BMP280;11303;50.772;19.670;2024-03-06T01:25:12;99100.63;;;0.41
22269;BMP280;11303;50.772;19.670;2024-03-06T01:27:16;99102.94;;;0.32
22269;BMP280;11303;50.772;19.670;2024-03-06T01:29:17;99091.69;;;0.23
22269;BMP280;11303;50.772;19.670;2024-03-06T01:31:19;99097.81;;;0.22
22269;BMP280;11303;50.772;19.670;2024-03-06T01:33:21;99096.53;;;0.24
22269;BMP280;11303;50.772;19.670;2024-03-06T01:35:24;99106.03;;;0.24
22269;BMP280;11303;50.772;19.670;2024-03-06T01:37:25;99114.97;;;0.16
22269;BMP280;11303;50.772;19.670;2024-03-06T01:39:27;99112.13;;;0.12
22269;BMP280;11303;50.772;19.670;2024-03-06T01:41:28;99118.03;;;0.13
22269;BMP280;11303;50.772;19.670;2024-03-06T01:43:37;99121.84;;;0.15
22269;BMP280;11303;50.772;19.670;2024-03-06T01:45:39;99117.53;;;0.16
22269;BMP280;11303;50.772;19.670;2024-03-06T01:47:41;99122.13;;;0.19
22269;BMP280;11303;50.772;19.670;2024-03-06T01:49:43;99121.09;;;0.20
22269;BMP280;11303;50.772;19.670;2024-03-06T01:51:49;99110.84;;;0.20
22269;BMP280;11303;50.772;19.670;2024-03-06T01:53:53;99121.88;;;0.21
22269;BMP280;11303;50.772;19.670;2024-03-06T01:55:55;99120.31;;;0.25
22269;BMP280;11303;50.772;19.670;2024-03-06T01:57:57;99115.47;;;0.28
22269;BMP280;11303;50.772;19.670;2024-03-06T01:59:58;99113.94;;;0.38
22269;BMP280;11303;50.772;19.670;2024-03-06T02:02:00;99111.59;;;0.46
22269;BMP280;11303;50.772;19.670;2024-03-06T02:04:08;99113.16;;;0.52
22269;BMP280;11303;50.772;19.670;2024-03-06T02:06:12;99107.50;;;0.56
22269;BMP280;11303;50.772;19.670;2024-03-06T02:08:15;99104.97;;;0.61
22269;BMP280;11303;50.772;19.670;2024-03-06T02:10:16;99110.34;;;0.64
22269;BMP280;11303;50.772;19.670;2024-03-06T02:12:18;99107.00;;;0.64
22269;BMP280;11303;50.772;19.670;2024-03-06T02:14:20;99102.91;;;0.68
22269;BMP280;11303;50.772;19.670;2024-03-06T02:16:21;99093.69;;;0.72
22269;BMP280;11303;50.772;19.670;2024-03-06T02:18:23;99099.31;;;0.74
22269;BMP280;11303;50.772;19.670;2024-03-06T02:20:25;99101.34;;;0.77
22269;BMP280;11303;50.772;19.670;2024-03-06T02:22:27;99106.47;;;0.77
22269;BMP280;11303;50.772;19.670;2024-03-06T02:24:28;99102.63;;;0.80
22269;BMP280;11303;50.772;19.670;2024-03-06T02:26:30;99103.41;;;0.80
22269;BMP280;11303;50.772;19.670;2024-03-06T02:28:31;99109.28;;;0.86
22269;BMP280;11303;50.772;19.670;2024-03-06T02:30:33;99111.31;;;0.89
22269;BMP280;11303;50.772;19.670;2024-03-06T02:32:38;99104.66;;;0.88
22269;BMP280;11303;50.772;19.670;2024-03-06T02:34:40;99115.16;;;0.86
22269;BMP280;11303;50.772;19.670;2024-03-06T02:36:42;99100.59;;;0.82
22269;BMP280;11303;50.772;19.670;2024-03-06T02:38:44;99100.84;;;0.80
22269;BMP280;11303;50.772;19.670;2024-03-06T02:40:46;99103.94;;;0.82
22269;BMP280;11303;50.772;19.670;2024-03-06T02:42:49;99105.44;;;0.83
22269;BMP280;11303;50.772;19.670;2024-03-06T02:44:51;99108.50;;;0.80
22269;BMP280;11303;50.772;19.670;2024-03-06T02:46:52;99104.94;;;0.81
22269;BMP280;11303;50.772;19.670;2024-03-06T02:48:54;99099.59;;;0.78
22269;BMP280;11303;50.772;19.670;2024-03-06T02:50:56;99100.59;;;0.77
22269;BMP280;11303;50.772;19.670;2024-03-06T02:52:58;99101.13;;;0.74
22269;BMP280;11303;50.772;19.670;2024-03-06T02:54:59;99105.72;;;0.71
22269;BMP280;11303;50.772;19.670;2024-03-06T02:57:01;99106.75;;;0.70
22269;BMP280;11303;50.772;19.670;2024-03-06T02:59:03;99111.59;;;0.72
22269;BMP280;11303;50.772;19.670;2024-03-06T03:01:05;99101.13;;;0.68
22269;BMP280;11303;50.772;19.670;2024-03-06T03:03:07;99105.19;;;0.69
22269;BMP280;11303;50.772;19.670;2024-03-06T03:05:09;99119.03;;;0.68
22269;BMP280;11303;50.772;19.670;2024-03-06T03:07:10;99102.13;;;0.67
22269;BMP280;11303;50.772;19.670;2024-03-06T03:09:12;99118.25;;;0.68
22269;BMP280;11303;50.772;19.670;2024-03-06T03:11:14;99115.69;;;0.68
22269;BMP280;11303;50.772;19.670;2024-03-06T03:13:17;99115.44;;;0.69
22269;BMP280;11303;50.772;19.670;2024-03-06T03:15:18;99104.19;;;0.70
22269;BMP280;11303;50.772;19.670;2024-03-06T03:17:20;99103.44;;;0.70
22269;BMP280;11303;50.772;19.670;2024-03-06T03:19:21;99115.69;;;0.68
22269;BMP280;11303;50.772;19.670;2024-03-06T03:21:23;99112.63;;;0.66
22269;BMP280;11303;50.772;19.670;2024-03-06T03:23:25;99115.72;;;0.63
22269;BMP280;11303;50.772;19.670;2024-03-06T03:25:26;99115.97;;;0.56
22269;BMP280;11303;50.772;19.670;2024-03-06T03:27:28;99118.78;;;0.54
22269;BMP280;11303;50.772;19.670;2024-03-06T03:29:30;99118.78;;;0.54
22269;BMP280;11303;50.772;19.670;2024-03-06T03:31:31;99129.03;;;0.54
22269;BMP280;11303;50.772;19.670;2024-03-06T03:33:41;99113.66;;;0.49
22269;BMP280;11303;50.772;19.670;2024-03-06T03:35:42;99130.31;;;0.47
22269;BMP280;11303;50.772;19.670;2024-03-06T03:37:44;99131.31;;;0.41
22269;BMP280;11303;50.772;19.670;2024-03-06T03:39:45;99127.22;;;0.34
22269;BMP280;11303;50.772;19.670;2024-03-06T03:41:48;99129.28;;;0.27
22269;BMP280;11303;50.772;19.670;2024-03-06T03:43:50;99117.75;;;0.25
22269;BMP280;11303;50.772;19.670;2024-03-06T03:45:51;99126.72;;;0.22
22269;BMP280;11303;50.772;19.670;2024-03-06T03:47:53;99139.22;;;0.18
22269;BMP280;11303;50.772;19.670;2024-03-06T03:49:55;99130.31;;;0.16
22269;BMP280;11303;50.772;19.670;2024-03-06T03:52:10;99132.06;;;0.15
22269;BMP280;11303;50.772;19.670;2024-03-06T03:54:13;99127.47;;;0.12
22269;BMP280;11303;50.772;19.670;2024-03-06T03:56:15;99139.22;;;0.08
22269;BMP280;11303;50.772;19.670;2024-03-06T03:58:17;99136.66;;;0.03
22269;BMP280;11303;50.772;19.670;2024-03-06T04:00:19;99138.19;;;-0.01
22269;BMP280;11303;50.772;19.670;2024-03-06T04:02:21;99134.63;;;0.00
22269;BMP280;11303;50.772;19.670;2024-03-06T04:04:23;99131.03;;;0.01
22269;BMP280;11303;50.772;19.670;2024-03-06T04:06:24;99132.06;;;0.05
22269;BMP280;11303;50.772;19.670;2024-03-06T04:08:26;99132.56;;;0.02
22269;BMP280;11303;50.772;19.670;2024-03-06T04:10:28;99130.53;;;-0.01
22269;BMP280;11303;50.772;19.670;2024-03-06T04:12:29;99138.19;;;-0.01
22269;BMP280;11303;50.772;19.670;2024-03-06T04:14:32;99136.91;;;-0.04
22269;BMP280;11303;50.772;19.670;2024-03-06T04:16:34;99135.88;;;-0.03
22269;BMP280;11303;50.772;19.670;2024-03-06T04:18:36;99132.03;;;-0.05
22269;BMP280;11303;50.772;19.670;2024-03-06T04:20:37;99125.91;;;-0.04
22269;BMP280;11303;50.772;19.670;2024-03-06T04:22:39;99136.13;;;-0.04
22269;BMP280;11303;50.772;19.670;2024-03-06T04:24:41;99122.84;;;-0.01
22269;BMP280;11303;50.772;19.670;2024-03-06T04:26:44;99124.91;;;-0.03
22269;BMP280;11303;50.772;19.670;2024-03-06T04:28:45;99130.53;;;-0.06
22269;BMP280;11303;50.772;19.670;2024-03-06T04:30:47;99131.28;;;-0.11
22269;BMP280;11303;50.772;19.670;2024-03-06T04:32:48;99133.56;;;-0.09
22269;BMP280;11303;50.772;19.670;2024-03-06T04:34:50;99127.16;;;-0.12
22269;BMP280;11303;50.772;19.670;2024-03-06T04:36:52;99135.34;;;-0.10
22269;BMP280;11303;50.772;19.670;2024-03-06T04:38:54;99135.63;;;-0.06
22269;BMP280;11303;50.772;19.670;2024-03-06T04:40:55;99134.34;;;-0.04
22269;BMP280;11303;50.772;19.670;2024-03-06T04:42:57;99127.72;;;-0.05
22269;BMP280;11303;50.772;19.670;2024-03-06T04:44:59;99124.13;;;-0.04
22269;BMP280;11303;50.772;19.670;2024-03-06T04:47:00;99119.00;;;0.02
22269;BMP280;11303;50.772;19.670;2024-03-06T04:49:02;99127.22;;;0.04
22269;BMP280;11303;50.772;19.670;2024-03-06T04:51:04;99131.03;;;0.01
22269;BMP280;11303;50.772;19.670;2024-03-06T04:53:06;99131.53;;;0.03
22269;BMP280;11303;50.772;19.670;2024-03-06T04:55:08;99123.88;;;0.03
22269;BMP280;11303;50.772;19.670;2024-03-06T04:57:11;99127.47;;;0.02
22269;BMP280;11303;50.772;19.670;2024-03-06T04:59:13;99131.81;;;0.07
22269;BMP280;11303;50.772;19.670;2024-03-06T05:01:15;99135.38;;;0.06
22269;BMP280;11303;50.772;19.670;2024-03-06T05:03:16;99133.84;;;0.05
22269;BMP280;11303;50.772;19.670;2024-03-06T05:05:35;99140.25;;;0.02
22269;BMP280;11303;50.772;19.670;2024-03-06T05:07:55;99147.66;;;0.04
22269;BMP280;11303;50.772;19.670;2024-03-06T05:10:14;99140.25;;;0.07
22269;BMP280;11303;50.772;19.670;2024-03-06T05:12:35;99136.44;;;0.10
22269;BMP280;11303;50.772;19.670;2024-03-06T05:14:55;99145.09;;;0.14
22269;BMP280;11303;50.772;19.670;2024-03-06T05:17:14;99150.25;;;0.19
22269;BMP280;11303;50.772;19.670;2024-03-06T05:19:32;99144.88;;;0.21
22269;BMP280;11303;50.772;19.670;2024-03-06T05:21:51;99148.44;;;0.20
22269;BMP280;11303;50.772;19.670;2024-03-06T05:24:10;99140.53;;;0.21
22269;BMP280;11303;50.772;19.670;2024-03-06T05:26:30;99145.88;;;0.25
22269;BMP280;11303;50.772;19.670;2024-03-06T05:28:49;99149.50;;;0.29
22269;BMP280;11303;50.772;19.670;2024-03-06T05:31:19;99143.88;;;0.32
22269;BMP280;11303;50.772;19.670;2024-03-06T05:33:38;99151.00;;;0.35
22269;BMP280;11303;50.772;19.670;2024-03-06T05:35:58;99153.81;;;0.39
22269;BMP280;11303;50.772;19.670;2024-03-06T05:38:17;99149.72;;;0.43
22269;BMP280;11303;50.772;19.670;2024-03-06T05:40:35;99145.91;;;0.45
22269;BMP280;11303;50.772;19.670;2024-03-06T05:42:56;99157.41;;;0.53
22269;BMP280;11303;50.772;19.670;2024-03-06T05:45:15;99158.16;;;0.59
22269;BMP280;11303;50.772;19.670;2024-03-06T05:47:34;99156.88;;;0.66
22269;BMP280;11303;50.772;19.670;2024-03-06T05:49:53;99159.72;;;0.65
22269;BMP280;11303;50.772;19.670;2024-03-06T05:52:12;99163.31;;;0.64
22269;BMP280;11303;50.772;19.670;2024-03-06T05:54:31;99162.25;;;0.65
22269;BMP280;11303;50.772;19.670;2024-03-06T05:56:52;99163.06;;;0.65
22269;BMP280;11303;50.772;19.670;2024-03-06T05:59:12;99169.44;;;0.68
22269;BMP280;11303;50.772;19.670;2024-03-06T06:01:17;99161.00;;;0.72
22269;BMP280;11303;50.772;19.670;2024-03-06T06:03:23;99165.34;;;0.77
22269;BMP280;11303;50.772;19.670;2024-03-06T06:05:24;99164.56;;;0.77
22269;BMP280;11303;50.772;19.670;2024-03-06T06:07:26;99165.06;;;0.79
22269;BMP280;11303;50.772;19.670;2024-03-06T06:09:28;99154.84;;;0.84
22269;BMP280;11303;50.772;19.670;2024-03-06T06:11:29;99172.00;;;0.88
22269;BMP280;11303;50.772;19.670;2024-03-06T06:13:31;99161.00;;;0.93
22269;BMP280;11303;50.772;19.670;2024-03-06T06:15:33;99165.84;;;1.00
22269;BMP280;11303;50.772;19.670;2024-03-06T06:17:34;99165.31;;;1.03
22269;BMP280;11303;50.772;19.670;2024-03-06T06:19:36;99160.97;;;1.08
22269;BMP280;11303;50.772;19.670;2024-03-06T06:21:38;99160.97;;;1.08
22269;BMP280;11303;50.772;19.670;2024-03-06T06:23:40;99164.00;;;1.16
22269;BMP280;11303;50.772;19.670;2024-03-06T06:25:41;99158.91;;;1.21
22269;BMP280;11303;50.772;19.670;2024-03-06T06:27:43;99162.72;;;1.29
22269;BMP280;11303;50.772;19.670;2024-03-06T06:29:45;99165.56;;;1.27
22269;BMP280;11303;50.772;19.670;2024-03-06T06:31:47;99176.81;;;1.26
22269;BMP280;11303;50.772;19.670;2024-03-06T06:33:48;99184.50;;;1.26
22269;BMP280;11303;50.772;19.670;2024-03-06T06:35:50;99179.38;;;1.26
22269;BMP280;11303;50.772;19.670;2024-03-06T06:37:53;99175.28;;;1.30
22269;BMP280;11303;50.772;19.670;2024-03-06T06:39:55;99182.97;;;1.30
22269;BMP280;11303;50.772;19.670;2024-03-06T06:41:56;99179.59;;;1.35
22269;BMP280;11303;50.772;19.670;2024-03-06T06:44:00;99184.94;;;1.38
22269;BMP280;11303;50.772;19.670;2024-03-06T06:46:04;99189.03;;;1.39
22269;BMP280;11303;50.772;19.670;2024-03-06T06:48:07;99182.88;;;1.40
22269;BMP280;11303;50.772;19.670;2024-03-06T06:50:10;99187.72;;;1.47
22269;BMP280;11303;50.772;19.670;2024-03-06T06:52:13;99184.66;;;1.50
22269;BMP280;11303;50.772;19.670;2024-03-06T06:54:15;99189.50;;;1.52
22269;BMP280;11303;50.772;19.670;2024-03-06T06:56:16;99184.16;;;1.48
22269;BMP280;11303;50.772;19.670;2024-03-06T06:58:18;99188.75;;;1.51
22269;BMP280;11303;50.772;19.670;2024-03-06T07:00:21;99186.69;;;1.53
22269;BMP280;11303;50.772;19.670;2024-03-06T07:02:24;99187.47;;;1.54
22269;BMP280;11303;50.772;19.670;2024-03-06T07:04:26;99187.72;;;1.52
22269;BMP280;11303;50.772;19.670;2024-03-06T07:06:28;99189.50;;;1.52
22269;BMP280;11303;50.772;19.670;2024-03-06T07:08:30;99178.75;;;1.55
22269;BMP280;11303;50.772;19.670;2024-03-06T07:10:31;99184.38;;;1.52
22269;BMP280;11303;50.772;19.670;2024-03-06T07:12:33;99186.69;;;1.53
22269;BMP280;11303;50.772;19.670;2024-03-06T07:14:34;99189.50;;;1.57
22269;BMP280;11303;50.772;19.670;2024-03-06T07:16:42;99183.34;;;1.58
22269;BMP280;11303;50.772;19.670;2024-03-06T07:18:44;99181.03;;;1.56
22269;BMP280;11303;50.772;19.670;2024-03-06T07:20:46;99177.19;;;1.59
22269;BMP280;11303;50.772;19.670;2024-03-06T07:22:48;99184.38;;;1.57
22269;BMP280;11303;50.772;19.670;2024-03-06T07:24:52;99178.75;;;1.55
22269;BMP280;11303;50.772;19.670;2024-03-06T07:26:53;99170.78;;;1.56
22269;BMP280;11303;50.772;19.670;2024-03-06T07:28:56;99184.13;;;1.53
22269;BMP280;11303;50.772;19.670;2024-03-06T07:30:57;99179.78;;;1.54
22269;BMP280;11303;50.772;19.670;2024-03-06T07:32:59;99184.66;;;1.55
22269;BMP280;11303;50.772;19.670;2024-03-06T07:35:01;99177.97;;;1.59
22269;BMP280;11303;50.772;19.670;2024-03-06T07:37:03;99175.38;;;1.59
22269;BMP280;11303;50.772;19.670;2024-03-06T07:39:06;99171.31;;;1.58
22269;BMP280;11303;50.772;19.670;2024-03-06T07:41:11;99183.09;;;1.65
22269;BMP280;11303;50.772;19.670;2024-03-06T07:43:12;99186.41;;;1.65
22269;BMP280;11303;50.772;19.670;2024-03-06T07:45:15;99191.03;;;1.63
22269;BMP280;11303;50.772;19.670;2024-03-06T07:47:17;99189.47;;;1.67
22269;BMP280;11303;50.772;19.670;2024-03-06T07:49:19;99193.56;;;1.68
22269;BMP280;11303;50.772;19.670;2024-03-06T07:51:20;99193.56;;;1.68
22269;BMP280;11303;50.772;19.670;2024-03-06T07:53:22;99194.59;;;1.72
22269;BMP280;11303;50.772;19.670;2024-03-06T07:55:24;99197.69;;;1.69
22269;BMP280;11303;50.772;19.670;2024-03-06T07:57:25;99196.91;;;1.63
22269;BMP280;11303;50.772;19.670;2024-03-06T07:59:27;99197.16;;;1.67
22269;BMP280;11303;50.772;19.670;2024-03-06T08:01:28;99197.16;;;1.72
22269;BMP280;11303;50.772;19.670;2024-03-06T08:03:30;99203.28;;;1.76
22269;BMP280;11303;50.772;19.670;2024-03-06T08:05:32;99206.09;;;1.80
22269;BMP280;11303;50.772;19.670;2024-03-06T08:07:35;99199.91;;;1.86
22269;BMP280;11303;50.772;19.670;2024-03-06T08:09:36;99206.00;;;1.90
22269;BMP280;11303;50.772;19.670;2024-03-06T08:11:38;99205.53;;;1.88
22269;BMP280;11303;50.772;19.670;2024-03-06T08:13:40;99210.88;;;1.92
22269;BMP280;11303;50.772;19.670;2024-03-06T08:15:42;99214.22;;;1.92
22269;BMP280;11303;50.772;19.670;2024-03-06T08:17:49;99211.66;;;1.92
22269;BMP280;11303;50.772;19.670;2024-03-06T08:19:53;99209.91;;;1.88
22269;BMP280;11303;50.772;19.670;2024-03-06T08:21:54;99211.94;;;1.86
22269;BMP280;11303;50.772;19.670;2024-03-06T08:23:56;99207.09;;;1.84
22269;BMP280;11303;50.772;19.670;2024-03-06T08:25:58;99213.00;;;1.85
22269;BMP280;11303;50.772;19.670;2024-03-06T08:28:01;99211.22;;;1.80
22269;BMP280;11303;50.772;19.670;2024-03-06T08:30:05;99205.56;;;1.83
22269;BMP280;11303;50.772;19.670;2024-03-06T08:32:07;99209.16;;;1.82
22269;BMP280;11303;50.772;19.670;2024-03-06T08:34:09;99203.28;;;1.82
22269;BMP280;11303;50.772;19.670;2024-03-06T08:36:11;99214.31;;;1.77
22269;BMP280;11303;50.772;19.670;2024-03-06T08:38:12;99208.41;;;1.76
22269;BMP280;11303;50.772;19.670;2024-03-06T08:40:14;99216.09;;;1.76
22269;BMP280;11303;50.772;19.670;2024-03-06T08:42:16;99211.75;;;1.77
22269;BMP280;11303;50.772;19.670;2024-03-06T08:44:19;99208.13;;;1.78
22269;BMP280;11303;50.772;19.670;2024-03-06T08:46:21;99215.34;;;1.76
22269;BMP280;11303;50.772;19.670;2024-03-06T08:48:23;99207.38;;;1.77
22269;BMP280;11303;50.772;19.670;2024-03-06T08:50:25;99214.53;;;1.80
22269;BMP280;11303;50.772;19.670;2024-03-06T08:52:26;99215.56;;;1.85
22269;BMP280;11303;50.772;19.670;2024-03-06T08:54:28;99215.56;;;1.85
22269;BMP280;11303;50.772;19.670;2024-03-06T08:56:32;99224.53;;;1.82
22269;BMP280;11303;50.772;19.670;2024-03-06T08:58:36;99217.09;;;1.80
22269;BMP280;11303;50.772;19.670;2024-03-06T09:00:37;99217.59;;;1.83
22269;BMP280;11303;50.772;19.670;2024-03-06T09:02:39;99222.47;;;1.84
22269;BMP280;11303;50.772;19.670;2024-03-06T09:04:43;99216.06;;;1.87
22269;BMP280;11303;50.772;19.670;2024-03-06T09:06:44;99206.00;;;1.90
22269;BMP280;11303;50.772;19.670;2024-03-06T09:08:46;99209.31;;;1.96
22269;BMP280;11303;50.772;19.670;2024-03-06T09:10:50;99215.22;;;1.96
22269;BMP280;11303;50.772;19.670;2024-03-06T09:12:51;99207.78;;;2.00
22269;BMP280;11303;50.772;19.670;2024-03-06T09:14:53;99212.13;;;1.99
22269;BMP280;11303;50.772;19.670;2024-03-06T09:16:55;99210.59;;;1.98
22269;BMP280;11303;50.772;19.670;2024-03-06T09:18:56;99207.03;;;1.94
22269;BMP280;11303;50.772;19.670;2024-03-06T09:20:58;99211.66;;;1.92
22269;BMP280;11303;50.772;19.670;2024-03-06T09:23:00;99221.66;;;1.94
22269;BMP280;11303;50.772;19.670;2024-03-06T09:25:02;99221.66;;;1.94
22269;BMP280;11303;50.772;19.670;2024-03-06T09:27:04;99219.06;;;1.99
22269;BMP280;11303;50.772;19.670;2024-03-06T09:29:05;99209.03;;;2.03
22269;BMP280;11303;50.772;19.670;2024-03-06T09:31:07;99219.03;;;2.04
22269;BMP280;11303;50.772;19.670;2024-03-06T09:33:09;99212.66;;;2.02
22269;BMP280;11303;50.772;19.670;2024-03-06T09:35:11;99210.34;;;2.00
22269;BMP280;11303;50.772;19.670;2024-03-06T09:37:13;99211.34;;;2.04
22269;BMP280;11303;50.772;19.670;2024-03-06T09:39:17;99211.31;;;2.09
22269;BMP280;11303;50.772;19.670;2024-03-06T09:41:19;99222.31;;;2.15
22269;BMP280;11303;50.772;19.670;2024-03-06T09:43:20;99212.84;;;2.15
22269;BMP280;11303;50.772;19.670;2024-03-06T09:45:22;99221.03;;;2.17
22269;BMP280;11303;50.772;19.670;2024-03-06T09:47:25;99217.72;;;2.17
22269;BMP280;11303;50.772;19.670;2024-03-06T09:49:29;99221.78;;;2.18
22269;BMP280;11303;50.772;19.670;2024-03-06T09:51:32;99218.19;;;2.19
22269;BMP280;11303;50.772;19.670;2024-03-06T09:53:34;99216.91;;;2.16
22269;BMP280;11303;50.772;19.670;2024-03-06T09:55:35;99223.09;;;2.15
22269;BMP280;11303;50.772;19.670;2024-03-06T09:57:38;99228.72;;;2.17
22269;BMP280;11303;50.772;19.670;2024-03-06T09:59:40;99220.00;;;2.13
22269;BMP280;11303;50.772;19.670;2024-03-06T10:01:48;99223.38;;;2.09
22269;BMP280;11303;50.772;19.670;2024-03-06T10:03:51;99221.56;;;2.14
22269;BMP280;11303;50.772;19.670;2024-03-06T10:05:52;99223.09;;;2.15
22269;BMP280;11303;50.772;19.670;2024-03-06T10:07:54;99231.81;;;2.14
22269;BMP280;11303;50.772;19.670;2024-03-06T10:09:56;99219.25;;;2.13
22269;BMP280;11303;50.772;19.670;2024-03-06T10:11:58;99225.94;;;2.14
22269;BMP280;11303;50.772;19.670;2024-03-06T10:14:04;99231.06;;;2.14
22269;BMP280;11303;50.772;19.670;2024-03-06T10:16:06;99225.13;;;2.13
22269;BMP280;11303;50.772;19.670;2024-03-06T10:18:11;99228.72;;;2.17
22269;BMP280;11303;50.772;19.670;2024-03-06T10:20:23;99223.56;;;2.23
22269;BMP280;11303;50.772;19.670;2024-03-06T10:22:25;99231.28;;;2.17
22269;BMP280;11303;50.772;19.670;2024-03-06T10:24:28;99226.16;;;2.17
22269;BMP280;11303;50.772;19.670;2024-03-06T10:26:30;99226.91;;;2.18
22269;BMP280;11303;50.772;19.670;2024-03-06T10:28:32;99228.94;;;2.26
22269;BMP280;11303;50.772;19.670;2024-03-06T10:30:34;99229.09;;;2.35
22269;BMP280;11303;50.772;19.670;2024-03-06T10:32:37;99231.88;;;2.44
22269;BMP280;11303;50.772;19.670;2024-03-06T10:34:39;99227.78;;;2.48
22269;BMP280;11303;50.772;19.670;2024-03-06T10:36:42;99233.38;;;2.50
22269;BMP280;11303;50.772;19.670;2024-03-06T10:38:47;99226.22;;;2.47
22269;BMP280;11303;50.772;19.670;2024-03-06T10:40:50;99225.69;;;2.50
22269;BMP280;11303;50.772;19.670;2024-03-06T10:42:52;99235.19;;;2.49
22269;BMP280;11303;50.772;19.670;2024-03-06T10:44:55;99230.56;;;2.51
22269;BMP280;11303;50.772;19.670;2024-03-06T10:47:01;99227.69;;;2.58
22269;BMP280;11303;50.772;19.670;2024-03-06T10:49:03;99227.38;;;2.65
22269;BMP280;11303;50.772;19.670;2024-03-06T10:51:06;99228.16;;;2.65
22269;BMP280;11303;50.772;19.670;2024-03-06T10:53:10;99224.25;;;2.68
22269;BMP280;11303;50.772;19.670;2024-03-06T10:55:13;99232.47;;;2.70
22269;BMP280;11303;50.772;19.670;2024-03-06T10:57:17;99230.16;;;2.68
22269;BMP280;11303;50.772;19.670;2024-03-06T10:59:20;99232.47;;;2.70
22269;BMP280;11303;50.772;19.670;2024-03-06T11:01:24;99225.25;;;2.72
22269;BMP280;11303;50.772;19.670;2024-03-06T11:03:26;99223.50;;;2.67
22269;BMP280;11303;50.772;19.670;2024-03-06T11:05:28;99221.41;;;2.69
22269;BMP280;11303;50.772;19.670;2024-03-06T11:07:30;99223.50;;;2.67
22269;BMP280;11303;50.772;19.670;2024-03-06T11:09:36;99218.34;;;2.67
22269;BMP280;11303;50.772;19.670;2024-03-06T11:11:52;99220.47;;;2.65
22269;BMP280;11303;50.772;19.670;2024-03-06T11:14:04;99220.13;;;2.72
22269;BMP280;11303;50.772;19.670;2024-03-06T11:16:07;99222.41;;;2.73
22269;BMP280;11303;50.772;19.670;2024-03-06T11:20:33;99214.19;;;2.77
22269;BMP280;11303;50.772;19.670;2024-03-06T11:24:59;99213.91;;;2.78
22269;BMP280;11303;50.772;19.670;2024-03-06T11:27:02;99215.19;;;2.81
22269;BMP280;11303;50.772;19.670;2024-03-06T11:29:07;99217.22;;;2.79
22269;BMP280;11303;50.772;19.670;2024-03-06T11:31:10;99211.06;;;2.80
22269;BMP280;11303;50.772;19.670;2024-03-06T11:33:20;99214.13;;;2.82
22269;BMP280;11303;50.772;19.670;2024-03-06T11:35:22;99210.72;;;2.92
22269;BMP280;11303;50.772;19.670;2024-03-06T11:37:23;99206.78;;;2.99
22269;BMP280;11303;50.772;19.670;2024-03-06T11:39:33;99207.72;;;3.08
22269;BMP280;11303;50.772;19.670;2024-03-06T11:43:48;99207.41;;;3.15
22269;BMP280;11303;50.772;19.670;2024-03-06T11:45:52;99204.03;;;3.20
22269;BMP280;11303;50.772;19.670;2024-03-06T11:48:01;99198.56;;;3.26
22269;BMP280;11303;50.772;19.670;2024-03-06T11:50:05;99210.34;;;3.27
22269;BMP280;11303;50.772;19.670;2024-03-06T11:52:10;99210.34;;;3.27
22269;BMP280;11303;50.772;19.670;2024-03-06T11:54:12;99208.25;;;3.30
22269;BMP280;11303;50.772;19.670;2024-03-06T11:56:14;99207.72;;;3.33
22269;BMP280;11303;50.772;19.670;2024-03-06T11:58:16;99203.13;;;3.30
22269;BMP280;11303;50.772;19.670;2024-03-06T12:00:17;99205.41;;;3.31